Time;durP1;ratioP1;P1;durP2;ratioP2;P2;SDS_P1;SDS_P2;PMS_P1;PMS_P2;Temp;Humidity;BMP_temperature;BMP_pressure;BME280_temperature;BME280_humidity;BME280_pressure;Samples;Min_cycle;Max_cycle;Signal;HPM_P1;HPM_P2
2022/06/26 00:00:39;;;;;;;;;;;;;;;;;;2081093;28;19928;-43
2022/06/26 00:01:40;;;;;;;;;;;;;;;;;;2080839;28;19928;-43
2022/06/26 00:02:41;;;;;;;;;;;;;;;;;;2081032;28;19960;-44
2022/06/26 00:03:42;;;;;;;;;;;;;;;;;;2080961;28;20410;-43
2022/06/26 00:04:44;;;;;;;;;;;;;;;;;;2081162;28;19928;-44
2022/06/26 00:05:44;;;;;;;;;;;;;;;;;;2081215;28;19952;-43
2022/06/26 00:06:45;;;;;;;;;;;;;;;;;;2080967;28;20298;-43
2022/06/26 00:07:46;;;;;;;;;;;;;;;;;;2080951;28;19921;-43
2022/06/26 00:08:47;;;;;;;;;;;;;;;;;;2081051;28;19921;-43
2022/06/26 00:09:48;;;;;;;;;;;;;;;;;;2081154;28;20282;-43
2022/06/26 00:10:49;;;;;;;;;;;;;;;;;;2081012;28;19936;-46
2022/06/26 00:11:50;;;;;;;;;;;;;;;;;;2080856;28;20506;-46
2022/06/26 00:12:51;;;;;;;;;;;;;;;;;;2081328;28;19932;-46
2022/06/26 00:13:51;;;;;;;;;;;;;;;;;;2081015;28;20008;-46
2022/06/26 00:14:52;;;;;;;;;;;;;;;;;;2081023;28;19921;-45
2022/06/26 00:15:53;;;;;;;;;;;;;;;;;;2081794;28;20041;-43
2022/06/26 00:16:54;;;;;;;;;;;;;;;;;;2082335;28;19925;-43
2022/06/26 00:17:55;;;;;;;;;;;;;;;;;;2082336;28;19928;-44
2022/06/26 00:18:56;;;;;;;;;;;;;;;;;;2082333;28;20465;-43
2022/06/26 00:19:57;;;;;;;;;;;;;;;;;;2082581;28;19921;-45
2022/06/26 00:20:58;;;;;;;;;;;;;;;;;;2082499;28;20019;-46
2022/06/26 00:21:59;;;;;;;;;;;;;;;;;;2082345;28;19921;-45
2022/06/26 00:22:59;;;;;;;;;;;;;;;;;;2082490;28;19928;-46
2022/06/26 00:24:00;;;;;;;;;;;;;;;;;;2082385;28;20290;-45
2022/06/26 00:25:01;;;;;;;;;;;;;;;;;;2082429;28;20294;-46
2022/06/26 00:26:02;;;;;;;;;;;;;;;;;;2082323;28;19928;-45
2022/06/26 00:27:03;;;;;;;;;;;;;;;;;;2082372;28;20004;-45
2022/06/26 00:28:04;;;;;;;;;;;;;;;;;;2082302;28;20390;-45
2022/06/26 00:29:05;;;;;;;;;;;;;;;;;;2082286;28;19997;-45
2022/06/26 00:30:06;;;;;;;;;;;;;;;;;;2082495;28;20443;-45
2022/06/26 00:31:06;;;;;;;;;;;;;;;;;;2082344;28;19952;-45
2022/06/26 00:32:08;;;;;;;;;;;;;;;;;;2082463;28;19921;-45
2022/06/26 00:33:08;;;;;;;;;;;;;;;;;;2082359;28;20015;-46
2022/06/26 00:34:09;;;;;;;;;;;;;;;;;;2082274;28;20410;-46
2022/06/26 00:35:10;;;;;;;;;;;;;;;;;;2082227;28;19925;-46
2022/06/26 00:36:11;;;;;;;;;;;;;;;;;;2082150;28;19921;-45
2022/06/26 00:37:12;;;;;;;;;;;;;;;;;;2082234;28;20442;-46
2022/06/26 00:38:13;;;;;;;;;;;;;;;;;;2082320;28;19928;-45
2022/06/26 00:39:13;;;;;;;;;;;;;;;;;;2082342;28;20011;-46
2022/06/26 00:40:14;;;;;;;;;;;;;;;;;;2082296;28;19927;-45
2022/06/26 00:41:15;;;;;;;;;;;;;;;;;;2082240;28;19927;-45
2022/06/26 00:42:17;;;;;;;;;;;;;;;;;;2082302;28;19954;-45
2022/06/26 00:43:17;;;;;;;;;;;;;;;;;;2082243;28;20101;-46
2022/06/26 00:44:18;;;;;;;;;;;;;;;;;;2082101;28;19928;-45
2022/06/26 00:45:19;;;;;;;;;;;;;;;;;;2082369;28;19964;-46
2022/06/26 00:46:20;;;;;;;;;;;;;;;;;;2082151;28;19927;-45
2022/06/26 00:47:21;;;;;;;;;;;;;;;;;;2082310;28;20032;-43
2022/06/26 00:48:22;;;;;;;;;;;;;;;;;;2082301;28;20355;-44
2022/06/26 00:49:22;;;;;;;;;;;;;;;;;;2082217;28;19921;-44
2022/06/26 00:50:23;;;;;;;;;;;;;;;;;;2082236;28;19952;-43
2022/06/26 00:51:25;;;;;;;;;;;;;;;;;;2082096;28;19921;-43
2022/06/26 00:52:26;;;;;;;;;;;;;;;;;;2082526;28;20393;-44
2022/06/26 00:53:26;;;;;;;;;;;;;;;;;;2081965;28;20022;-43
2022/06/26 00:54:27;;;;;;;;;;;;;;;;;;2082158;28;20010;-43
2022/06/26 00:55:28;;;;;;;;;;;;;;;;;;2082341;28;20359;-44
2022/06/26 00:56:29;;;;;;;;;;;;;;;;;;2082013;28;19932;-47
2022/06/26 00:57:30;;;;;;;;;;;;;;;;;;2082429;28;19967;-43
2022/06/26 00:58:31;;;;;;;;;;;;;;;;;;2082085;28;19921;-43
2022/06/26 00:59:32;;;;;;;;;;;;;;;;;;2082276;28;19925;-43
2022/06/26 01:00:33;;;;;;;;;;;;;;;;;;2082159;28;20002;-43
2022/06/26 01:01:34;;;;;;;;;;;;;;;;;;2082183;28;20000;-43
2022/06/26 01:02:35;;;;;;;;;;;;;;;;;;2082052;28;20011;-43
2022/06/26 01:03:36;;;;;;;;;;;;;;;;;;2082195;28;19971;-43
2022/06/26 01:04:37;;;;;;;;;;;;;;;;;;2082112;28;19974;-43
2022/06/26 01:05:39;;;;;;;;;;;;;;;;;;2082140;28;19925;-43
2022/06/26 01:06:40;;;;;;;;;;;;;;;;;;2081998;28;20012;-43
2022/06/26 01:07:41;;;;;;;;;;;;;;;;;;2082020;28;20027;-43
2022/06/26 01:08:42;;;;;;;;;;;;;;;;;;2082021;28;19921;-43
2022/06/26 01:09:43;;;;;;;;;;;;;;;;;;2082228;28;20007;-44
2022/06/26 01:10:44;;;;;;;;;;;;;;;;;;2082101;28;20429;-43
2022/06/26 01:11:45;;;;;;;;;;;;;;;;;;2081716;28;20490;-43
2022/06/26 01:12:46;;;;;;;;;;;;;;;;;;2082567;28;19968;-46
2022/06/26 01:13:46;;;;;;;;;;;;;;;;;;2082210;28;19967;-44
2022/06/26 01:14:48;;;;;;;;;;;;;;;;;;2082072;28;19979;-43
2022/06/26 01:15:48;;;;;;;;;;;;;;;;;;2082013;28;19936;-43
2022/06/26 01:16:49;;;;;;;;;;;;;;;;;;2082039;28;19937;-43
2022/06/26 01:17:50;;;;;;;;;;;;;;;;;;2082092;28;19960;-43
2022/06/26 01:18:51;;;;;;;;;;;;;;;;;;2081980;28;19921;-43
2022/06/26 01:19:51;;;;;;;;;;;;;;;;;;2082211;28;19921;-43
2022/06/26 01:20:54;;;;;;;;;;;;;;;;;;2081891;28;19921;-43
2022/06/26 01:21:54;;;;;;;;;;;;;;;;;;2082131;28;20465;-43
2022/06/26 01:22:55;;;;;;;;;;;;;;;;;;2082003;28;20008;-43
2022/06/26 01:23:56;;;;;;;;;;;;;;;;;;2081889;28;19975;-43
2022/06/26 01:24:57;;;;;;;;;;;;;;;;;;2082051;28;19964;-43
2022/06/26 01:25:58;;;;;;;;;;;;;;;;;;2081945;28;19928;-42
2022/06/26 01:27:00;;;;;;;;;;;;;;;;;;2081867;28;20406;-42
2022/06/26 01:28:01;;;;;;;;;;;;;;;;;;2082212;28;20052;-45
2022/06/26 01:29:02;;;;;;;;;;;;;;;;;;2082354;28;20332;-44
2022/06/26 01:30:02;;;;;;;;;;;;;;;;;;2081979;28;20366;-44
2022/06/26 01:31:03;;;;;;;;;;;;;;;;;;2082019;28;19960;-46
2022/06/26 01:32:04;;;;;;;;;;;;;;;;;;2081953;28;19929;-44
2022/06/26 01:33:05;;;;;;;;;;;;;;;;;;2082301;28;20271;-43
2022/06/26 01:34:06;;;;;;;;;;;;;;;;;;2082141;28;20023;-45
2022/06/26 01:35:07;;;;;;;;;;;;;;;;;;2082031;28;20286;-45
2022/06/26 01:36:08;;;;;;;;;;;;;;;;;;2081830;28;20285;-45
2022/06/26 01:37:09;;;;;;;;;;;;;;;;;;2081998;28;19921;-45
2022/06/26 01:38:10;;;;;;;;;;;;;;;;;;2081907;28;19972;-44
2022/06/26 01:39:11;;;;;;;;;;;;;;;;;;2081807;28;19921;-45
2022/06/26 01:40:12;;;;;;;;;;;;;;;;;;2081895;28;19928;-45
2022/06/26 01:41:13;;;;;;;;;;;;;;;;;;2081810;28;19999;-45
2022/06/26 01:42:13;;;;;;;;;;;;;;;;;;2082046;28;20003;-45
2022/06/26 01:43:14;;;;;;;;;;;;;;;;;;2082063;28;19921;-43
2022/06/26 01:44:15;;;;;;;;;;;;;;;;;;2081885;28;19928;-44
2022/06/26 01:45:16;;;;;;;;;;;;;;;;;;2081927;28;20370;-42
2022/06/26 01:46:17;;;;;;;;;;;;;;;;;;2082061;28;19928;-43
2022/06/26 01:47:18;;;;;;;;;;;;;;;;;;2081865;28;19943;-42
2022/06/26 01:48:19;;;;;;;;;;;;;;;;;;2081924;28;19943;-45
2022/06/26 01:49:21;;;;;;;;;;;;;;;;;;2085533;28;19920;-45
2022/06/26 01:50:21;;;;;;;;;;;;;;;;;;2081789;28;20012;-45
2022/06/26 01:51:22;;;;;;;;;;;;;;;;;;2081912;28;20388;-45
2022/06/26 01:52:23;;;;;;;;;;;;;;;;;;2082031;28;20012;-43
2022/06/26 01:53:24;;;;;;;;;;;;;;;;;;2081756;28;19925;-43
2022/06/26 01:54:25;;;;;;;;;;;;;;;;;;2081743;28;19921;-43
2022/06/26 01:55:26;;;;;;;;;;;;;;;;;;2081879;28;19963;-42
2022/06/26 01:56:26;;;;;;;;;;;;;;;;;;2081658;28;20286;-43
2022/06/26 01:57:27;;;;;;;;;;;;;;;;;;2081812;28;19936;-43
2022/06/26 01:58:28;;;;;;;;;;;;;;;;;;2082030;28;19921;-46
2022/06/26 01:59:29;;;;;;;;;;;;;;;;;;2081680;28;20306;-44
2022/06/26 02:00:30;;;;;;;;;;;;;;;;;;2081854;28;20008;-45
2022/06/26 02:01:32;;;;;;;;;;;;;;;;;;2081539;28;20402;-45
2022/06/26 02:02:33;;;;;;;;;;;;;;;;;;2081700;28;20380;-45
2022/06/26 02:03:34;;;;;;;;;;;;;;;;;;2081692;28;19925;-46
2022/06/26 02:04:35;;;;;;;;;;;;;;;;;;2081752;28;20354;-45
2022/06/26 02:05:36;;;;;;;;;;;;;;;;;;2081840;28;19929;-43
2022/06/26 02:06:37;;;;;;;;;;;;;;;;;;2081931;28;20370;-45
2022/06/26 02:07:38;;;;;;;;;;;;;;;;;;2081597;28;19920;-45
2022/06/26 02:08:39;;;;;;;;;;;;;;;;;;2081643;28;19921;-45
2022/06/26 02:13:37;;;;;;;;;;;;;;;;;;2081755;28;20012;-45
2022/06/26 02:14:38;;;;;;;;;;;;;;;;;;2081622;28;20314;-46
2022/06/26 02:15:39;;;;;;;;;;;;;;;;;;2081523;28;20036;-45
2022/06/26 02:16:40;;;;;;;;;;;;;;;;;;2081825;28;20018;-46
2022/06/26 02:17:41;;;;;;;;;;;;;;;;;;2081767;28;19925;-45
2022/06/26 02:18:42;;;;;;;;;;;;;;;;;;2081638;28;19964;-44
2022/06/26 02:19:43;;;;;;;;;;;;;;;;;;2081591;28;20373;-45
2022/06/26 02:20:44;;;;;;;;;;;;;;;;;;2081984;28;19952;-42
2022/06/26 02:21:45;;;;;;;;;;;;;;;;;;2081598;28;19936;-45
2022/06/26 02:22:46;;;;;;;;;;;;;;;;;;2081722;28;19928;-45
2022/06/26 02:23:47;;;;;;;;;;;;;;;;;;2081601;28;20012;-45
2022/06/26 02:24:47;;;;;;;;;;;;;;;;;;2081439;28;20477;-45
2022/06/26 02:25:48;;;;;;;;;;;;;;;;;;2081470;28;19944;-46
2022/06/26 02:26:49;;;;;;;;;;;;;;;;;;2081948;28;20016;-43
2022/06/26 02:27:50;;;;;;;;;;;;;;;;;;2081633;28;20089;-43
2022/06/26 02:28:51;;;;;;;;;;;;;;;;;;2081813;28;19962;-42
2022/06/26 02:29:52;;;;;;;;;;;;;;;;;;2081556;28;19921;-42
2022/06/26 02:30:53;;;;;;;;;;;;;;;;;;2081392;28;19921;-43
2022/06/26 02:31:54;;;;;;;;;;;;;;;;;;2081715;28;19928;-43
2022/06/26 02:32:56;;;;;;;;;;;;;;;;;;2081525;28;20018;-42
2022/06/26 02:33:57;;;;;;;;;;;;;;;;;;2081844;28;20015;-42
2022/06/26 02:34:58;;;;;;;;;;;;;;;;;;2081488;28;19921;-43
2022/06/26 02:35:59;;;;;;;;;;;;;;;;;;2081464;28;20400;-42
2022/06/26 02:37:00;;;;;;;;;;;;;;;;;;2081420;28;19920;-42
2022/06/26 02:38:00;;;;;;;;;;;;;;;;;;2081431;28;19921;-42
2022/06/26 02:39:01;;;;;;;;;;;;;;;;;;2081164;28;20393;-43
2022/06/26 02:40:02;;;;;;;;;;;;;;;;;;2081519;28;20056;-42
2022/06/26 02:41:03;;;;;;;;;;;;;;;;;;2081464;28;20429;-44
2022/06/26 02:42:04;;;;;;;;;;;;;;;;;;2081530;28;20245;-43
2022/06/26 02:43:05;;;;;;;;;;;;;;;;;;2081389;28;19967;-43
2022/06/26 02:44:06;;;;;;;;;;;;;;;;;;2081447;28;19936;-42
2022/06/26 02:45:07;;;;;;;;;;;;;;;;;;2081401;28;20379;-44
2022/06/26 02:46:07;;;;;;;;;;;;;;;;;;2081162;28;20008;-43
2022/06/26 02:47:08;;;;;;;;;;;;;;;;;;2081769;28;20334;-45
2022/06/26 02:48:09;;;;;;;;;;;;;;;;;;2081359;28;19921;-45
2022/06/26 02:49:10;;;;;;;;;;;;;;;;;;2081512;28;20394;-45
2022/06/26 02:50:11;;;;;;;;;;;;;;;;;;2081423;28;19925;-46
2022/06/26 02:51:12;;;;;;;;;;;;;;;;;;2081344;28;19974;-45
2022/06/26 02:52:13;;;;;;;;;;;;;;;;;;2081458;28;19920;-45
2022/06/26 02:53:14;;;;;;;;;;;;;;;;;;2081380;28;20007;-45
2022/06/26 02:54:14;;;;;;;;;;;;;;;;;;2081570;28;19925;-45
2022/06/26 02:55:15;;;;;;;;;;;;;;;;;;2081370;28;20276;-46
2022/06/26 02:56:16;;;;;;;;;;;;;;;;;;2081624;28;20326;-43
2022/06/26 02:57:17;;;;;;;;;;;;;;;;;;2081730;28;19921;-43
2022/06/26 02:58:18;;;;;;;;;;;;;;;;;;2081436;28;20378;-43
2022/06/26 02:59:19;;;;;;;;;;;;;;;;;;2081456;28;19921;-44
2022/06/26 03:00:19;;;;;;;;;;;;;;;;;;2081410;28;20401;-43
2022/06/26 03:01:20;;;;;;;;;;;;;;;;;;2081428;28;20011;-43
2022/06/26 03:02:21;;;;;;;;;;;;;;;;;;2081575;28;19921;-44
2022/06/26 03:03:22;;;;;;;;;;;;;;;;;;2081584;28;20019;-45
2022/06/26 03:04:23;;;;;;;;;;;;;;;;;;2081267;28;19921;-45
2022/06/26 03:05:24;;;;;;;;;;;;;;;;;;2081471;28;19964;-45
2022/06/26 03:06:25;;;;;;;;;;;;;;;;;;2081260;28;20333;-45
2022/06/26 03:07:26;;;;;;;;;;;;;;;;;;2081463;28;19921;-45
2022/06/26 03:08:26;;;;;;;;;;;;;;;;;;2081632;28;19964;-45
2022/06/26 03:09:28;;;;;;;;;;;;;;;;;;2081354;28;19928;-45
2022/06/26 03:10:28;;;;;;;;;;;;;;;;;;2081614;28;19921;-45
2022/06/26 03:11:29;;;;;;;;;;;;;;;;;;2081243;28;20011;-46
2022/06/26 03:12:30;;;;;;;;;;;;;;;;;;2081446;28;19927;-46
2022/06/26 03:13:31;;;;;;;;;;;;;;;;;;2081246;28;19967;-45
2022/06/26 03:14:33;;;;;;;;;;;;;;;;;;2081703;28;20008;-45
2022/06/26 03:15:34;;;;;;;;;;;;;;;;;;2081357;28;19928;-45
2022/06/26 03:16:35;;;;;;;;;;;;;;;;;;2081138;28;19925;-45
2022/06/26 03:17:36;;;;;;;;;;;;;;;;;;2081270;28;20012;-45
2022/06/26 03:18:37;;;;;;;;;;;;;;;;;;2081161;28;19925;-48
2022/06/26 03:19:38;;;;;;;;;;;;;;;;;;2081000;28;20366;-45
2022/06/26 03:20:41;;;;;;;;;;;;;;;;;;2081276;28;20413;-45
2022/06/26 03:21:42;;;;;;;;;;;;;;;;;;2081175;28;19968;-45
2022/06/26 03:22:43;;;;;;;;;;;;;;;;;;2081175;28;19921;-45
2022/06/26 03:24:02;;;;;;;;;;;;;;;;;;2081397;28;20015;-45
2022/06/26 03:25:03;;;;;;;;;;;;;;;;;;2081164;28;20383;-46
2022/06/26 03:26:04;;;;;;;;;;;;;;;;;;2081225;28;19921;-45
2022/06/26 03:27:05;;;;;;;;;;;;;;;;;;2081268;28;20302;-45
2022/06/26 03:28:06;;;;;;;;;;;;;;;;;;2081417;28;19921;-45
2022/06/26 03:29:07;;;;;;;;;;;;;;;;;;2081211;28;19921;-45
2022/06/26 03:30:08;;;;;;;;;;;;;;;;;;2081560;28;19927;-43
2022/06/26 03:31:08;;;;;;;;;;;;;;;;;;2081078;28;19980;-43
2022/06/26 03:32:09;;;;;;;;;;;;;;;;;;2081755;28;19928;-44
2022/06/26 03:33:10;;;;;;;;;;;;;;;;;;2081189;28;19925;-45
2022/06/26 03:34:11;;;;;;;;;;;;;;;;;;2081245;28;20370;-45
2022/06/26 03:35:12;;;;;;;;;;;;;;;;;;2081210;28;20441;-46
2022/06/26 03:36:13;;;;;;;;;;;;;;;;;;2081497;28;19927;-43
2022/06/26 03:37:14;;;;;;;;;;;;;;;;;;2081344;28;20278;-43
2022/06/26 03:38:15;;;;;;;;;;;;;;;;;;2081171;28;19964;-43
2022/06/26 03:39:16;;;;;;;;;;;;;;;;;;2081327;28;20374;-43
2022/06/26 03:40:17;;;;;;;;;;;;;;;;;;2081260;28;19963;-43
2022/06/26 03:41:18;;;;;;;;;;;;;;;;;;2080873;28;20350;-44
2022/06/26 03:42:18;;;;;;;;;;;;;;;;;;2081158;28;19921;-43
2022/06/26 03:43:19;;;;;;;;;;;;;;;;;;2081155;28;19957;-43
2022/06/26 03:44:20;;;;;;;;;;;;;;;;;;2081006;28;20094;-43
2022/06/26 03:45:21;;;;;;;;;;;;;;;;;;2081340;28;19967;-43
2022/06/26 03:46:22;;;;;;;;;;;;;;;;;;2081311;28;20375;-43
2022/06/26 03:47:23;;;;;;;;;;;;;;;;;;2081113;28;19967;-43
2022/06/26 03:48:24;;;;;;;;;;;;;;;;;;2081522;28;19921;-45
2022/06/26 03:49:25;;;;;;;;;;;;;;;;;;2081117;28;20279;-46
2022/06/26 03:50:25;;;;;;;;;;;;;;;;;;2081107;28;20351;-45
2022/06/26 03:51:27;;;;;;;;;;;;;;;;;;2082738;28;19967;-44
2022/06/26 03:52:27;;;;;;;;;;;;;;;;;;2082738;28;19928;-43
2022/06/26 03:53:28;;;;;;;;;;;;;;;;;;2082541;28;20002;-44
2022/06/26 03:54:30;;;;;;;;;;;;;;;;;;2082532;28;19967;-43
2022/06/26 03:55:31;;;;;;;;;;;;;;;;;;2082834;28;20011;-44
2022/06/26 03:56:32;;;;;;;;;;;;;;;;;;2082362;28;20315;-43
2022/06/26 03:57:33;;;;;;;;;;;;;;;;;;2082564;28;19932;-43
2022/06/26 03:58:33;;;;;;;;;;;;;;;;;;2082488;28;20278;-43
2022/06/26 03:59:36;;;;;;;;;;;;;;;;;;2082581;28;19925;-45
2022/06/26 04:00:37;;;;;;;;;;;;;;;;;;2082529;28;19921;-43
2022/06/26 04:01:38;;;;;;;;;;;;;;;;;;2082378;28;19921;-43
2022/06/26 04:02:40;;;;;;;;;;;;;;;;;;2082728;28;20433;-43
2022/06/26 04:03:41;;;;;;;;;;;;;;;;;;2082507;28;20383;-43
2022/06/26 04:04:42;;;;;;;;;;;;;;;;;;2082536;28;19927;-44
2022/06/26 04:05:43;;;;;;;;;;;;;;;;;;2082528;28;20294;-44
2022/06/26 04:06:44;;;;;;;;;;;;;;;;;;2082567;28;19967;-43
2022/06/26 04:07:44;;;;;;;;;;;;;;;;;;2082474;28;19960;-44
2022/06/26 04:08:47;;;;;;;;;;;;;;;;;;2082586;28;19925;-43
2022/06/26 04:09:48;;;;;;;;;;;;;;;;;;2082398;28;19921;-43
2022/06/26 04:10:49;;;;;;;;;;;;;;;;;;2082411;28;20020;-43
2022/06/26 04:11:50;;;;;;;;;;;;;;;;;;2082298;28;20008;-44
2022/06/26 04:12:51;;;;;;;;;;;;;;;;;;2082586;28;20019;-44
2022/06/26 04:13:52;;;;;;;;;;;;;;;;;;2082466;28;19920;-43
2022/06/26 04:14:52;;;;;;;;;;;;;;;;;;2082757;28;19928;-45
2022/06/26 04:15:53;;;;;;;;;;;;;;;;;;2082313;28;19921;-44
2022/06/26 04:16:54;;;;;;;;;;;;;;;;;;2082548;28;19975;-43
2022/06/26 04:17:55;;;;;;;;;;;;;;;;;;2082376;28;20297;-43
2022/06/26 04:18:56;;;;;;;;;;;;;;;;;;2082294;28;20371;-42
2022/06/26 04:19:57;;;;;;;;;;;;;;;;;;2082510;28;19921;-43
2022/06/26 04:20:57;;;;;;;;;;;;;;;;;;2082449;28;20000;-45
2022/06/26 04:21:58;;;;;;;;;;;;;;;;;;2082660;28;19921;-45
2022/06/26 04:22:59;;;;;;;;;;;;;;;;;;2082367;28;20339;-46
2022/06/26 04:24:00;;;;;;;;;;;;;;;;;;2082404;28;20055;-45
2022/06/26 04:25:01;;;;;;;;;;;;;;;;;;2082262;28;19925;-46
2022/06/26 04:26:03;;;;;;;;;;;;;;;;;;2082279;28;19928;-46
2022/06/26 04:27:03;;;;;;;;;;;;;;;;;;2082429;28;20012;-46
2022/06/26 04:28:04;;;;;;;;;;;;;;;;;;2082403;28;19921;-46
2022/06/26 04:29:05;;;;;;;;;;;;;;;;;;2082326;28;19932;-45
2022/06/26 04:30:06;;;;;;;;;;;;;;;;;;2082244;28;19928;-46
2022/06/26 04:31:07;;;;;;;;;;;;;;;;;;2082470;28;20051;-44
2022/06/26 04:32:08;;;;;;;;;;;;;;;;;;2082362;28;20006;-44
2022/06/26 04:33:09;;;;;;;;;;;;;;;;;;2082240;28;19921;-44
2022/06/26 04:34:10;;;;;;;;;;;;;;;;;;2082311;28;19928;-43
2022/06/26 04:35:10;;;;;;;;;;;;;;;;;;2082490;28;19932;-46
2022/06/26 04:36:12;;;;;;;;;;;;;;;;;;2082197;28;19983;-46
2022/06/26 04:37:13;;;;;;;;;;;;;;;;;;2082274;28;20019;-45
2022/06/26 04:38:14;;;;;;;;;;;;;;;;;;2082075;28;20024;-46
2022/06/26 04:39:15;;;;;;;;;;;;;;;;;;2082447;28;20131;-46
2022/06/26 04:40:16;;;;;;;;;;;;;;;;;;2082475;28;20023;-44
2022/06/26 04:41:34;;;;;;;;;;;;;;;;;;2082135;28;19921;-43
2022/06/26 04:42:35;;;;;;;;;;;;;;;;;;2082302;28;19925;-45
2022/06/26 04:43:36;;;;;;;;;;;;;;;;;;2082195;28;19949;-44
2022/06/26 04:44:37;;;;;;;;;;;;;;;;;;2082128;28;19921;-44
2022/06/26 04:45:38;;;;;;;;;;;;;;;;;;2082340;28;19921;-47
2022/06/26 04:46:38;;;;;;;;;;;;;;;;;;2082457;28;19921;-43
2022/06/26 04:47:39;;;;;;;;;;;;;;;;;;2082278;28;20053;-45
2022/06/26 04:48:40;;;;;;;;;;;;;;;;;;2082287;28;20027;-44
2022/06/26 04:49:41;;;;;;;;;;;;;;;;;;2082352;28;19925;-46
2022/06/26 04:50:42;;;;;;;;;;;;;;;;;;2082630;28;19921;-43
2022/06/26 04:51:43;;;;;;;;;;;;;;;;;;2082208;28;19921;-43
2022/06/26 04:52:44;;;;;;;;;;;;;;;;;;2082120;28;19986;-43
2022/06/26 04:53:44;;;;;;;;;;;;;;;;;;2082367;28;19931;-46
2022/06/26 04:54:45;;;;;;;;;;;;;;;;;;2082308;28;20039;-46
2022/06/26 04:55:46;;;;;;;;;;;;;;;;;;2082129;28;20347;-47
2022/06/26 04:56:47;;;;;;;;;;;;;;;;;;2082184;28;19952;-47
2022/06/26 04:57:48;;;;;;;;;;;;;;;;;;2082097;28;19959;-45
2022/06/26 04:58:49;;;;;;;;;;;;;;;;;;2082109;28;20409;-46
2022/06/26 04:59:50;;;;;;;;;;;;;;;;;;2082160;28;19971;-46
2022/06/26 05:00:50;;;;;;;;;;;;;;;;;;2082259;28;19921;-46
2022/06/26 05:01:51;;;;;;;;;;;;;;;;;;2081643;28;19929;-46
2022/06/26 05:02:52;;;;;;;;;;;;;;;;;;2082296;28;19928;-46
2022/06/26 05:03:53;;;;;;;;;;;;;;;;;;2082059;28;19971;-46
2022/06/26 05:04:54;;;;;;;;;;;;;;;;;;2082227;28;19976;-46
2022/06/26 05:05:55;;;;;;;;;;;;;;;;;;2082176;28;19929;-47
2022/06/26 05:06:56;;;;;;;;;;;;;;;;;;2082061;28;19966;-46
2022/06/26 05:07:57;;;;;;;;;;;;;;;;;;2082147;28;20004;-46
2022/06/26 05:08:58;;;;;;;;;;;;;;;;;;2082220;28;20007;-46
2022/06/26 05:09:59;;;;;;;;;;;;;;;;;;2082337;28;20370;-46
2022/06/26 05:11:00;;;;;;;;;;;;;;;;;;2081829;28;19921;-46
2022/06/26 05:12:01;;;;;;;;;;;;;;;;;;2082185;28;20362;-46
2022/06/26 05:13:02;;;;;;;;;;;;;;;;;;2081950;28;19964;-46
2022/06/26 05:14:02;;;;;;;;;;;;;;;;;;2082130;28;19921;-46
2022/06/26 05:15:03;;;;;;;;;;;;;;;;;;2082046;28;20259;-46
2022/06/26 05:16:04;;;;;;;;;;;;;;;;;;2082074;28;19971;-48
2022/06/26 05:17:05;;;;;;;;;;;;;;;;;;2082089;28;20374;-46
2022/06/26 05:18:06;;;;;;;;;;;;;;;;;;2082041;28;19956;-45
2022/06/26 05:19:07;;;;;;;;;;;;;;;;;;2081897;28;19979;-47
2022/06/26 05:20:08;;;;;;;;;;;;;;;;;;2082123;28;20008;-46
2022/06/26 05:21:08;;;;;;;;;;;;;;;;;;2082066;28;19920;-46
2022/06/26 05:22:09;;;;;;;;;;;;;;;;;;2081842;28;20303;-45
2022/06/26 05:23:12;;;;;;;;;;;;;;;;;;2082087;28;19925;-45
2022/06/26 05:24:12;;;;;;;;;;;;;;;;;;2082174;28;20482;-45
2022/06/26 05:25:13;;;;;;;;;;;;;;;;;;2082000;28;19933;-46
2022/06/26 05:26:14;;;;;;;;;;;;;;;;;;2082062;28;20035;-46
2022/06/26 05:27:15;;;;;;;;;;;;;;;;;;2082136;28;19925;-46
2022/06/26 05:28:16;;;;;;;;;;;;;;;;;;2081870;28;19925;-46
2022/06/26 05:29:17;;;;;;;;;;;;;;;;;;2082096;28;20283;-47
2022/06/26 05:30:18;;;;;;;;;;;;;;;;;;2081904;28;20377;-46
2022/06/26 05:31:19;;;;;;;;;;;;;;;;;;2081759;28;19932;-47
2022/06/26 05:32:20;;;;;;;;;;;;;;;;;;2082261;28;19921;-43
2022/06/26 05:33:21;;;;;;;;;;;;;;;;;;2082075;28;19946;-44
2022/06/26 05:34:22;;;;;;;;;;;;;;;;;;2081583;28;20286;-44
2022/06/26 05:35:23;;;;;;;;;;;;;;;;;;2082150;28;19928;-48
2022/06/26 05:36:24;;;;;;;;;;;;;;;;;;2081984;28;20016;-46
2022/06/26 05:37:25;;;;;;;;;;;;;;;;;;2081894;28;20008;-46
2022/06/26 05:38:26;;;;;;;;;;;;;;;;;;2082187;28;20267;-46
2022/06/26 05:39:27;;;;;;;;;;;;;;;;;;2081943;28;19971;-47
2022/06/26 05:40:27;;;;;;;;;;;;;;;;;;2082154;28;20015;-45
2022/06/26 05:41:28;;;;;;;;;;;;;;;;;;2081881;28;19921;-46
2022/06/26 05:42:29;;;;;;;;;;;;;;;;;;2081858;28;20063;-46
2022/06/26 05:43:30;;;;;;;;;;;;;;;;;;2082130;28;20016;-47
2022/06/26 05:44:31;;;;;;;;;;;;;;;;;;2081767;28;19921;-45
2022/06/26 05:45:32;;;;;;;;;;;;;;;;;;2082000;28;20095;-46
2022/06/26 05:46:33;;;;;;;;;;;;;;;;;;2081823;28;19925;-44
2022/06/26 05:47:34;;;;;;;;;;;;;;;;;;2081848;28;19921;-46
2022/06/26 05:48:35;;;;;;;;;;;;;;;;;;2081866;28;20142;-46
2022/06/26 05:49:36;;;;;;;;;;;;;;;;;;2082077;28;19970;-48
2022/06/26 05:50:37;;;;;;;;;;;;;;;;;;2081839;28;19928;-49
2022/06/26 05:51:38;;;;;;;;;;;;;;;;;;2081839;28;19921;-46
2022/06/26 05:52:39;;;;;;;;;;;;;;;;;;2081648;28;19921;-45
2022/06/26 05:53:39;;;;;;;;;;;;;;;;;;2081877;28;19998;-46
2022/06/26 05:54:40;;;;;;;;;;;;;;;;;;2081929;28;19949;-46
2022/06/26 05:55:41;;;;;;;;;;;;;;;;;;2081869;28;20016;-46
2022/06/26 05:56:42;;;;;;;;;;;;;;;;;;2081871;28;20427;-45
2022/06/26 05:57:43;;;;;;;;;;;;;;;;;;2081825;28;19921;-47
2022/06/26 05:58:44;;;;;;;;;;;;;;;;;;2081700;28;20387;-48
2022/06/26 05:59:45;;;;;;;;;;;;;;;;;;2081959;28;19960;-46
2022/06/26 06:00:46;;;;;;;;;;;;;;;;;;2081684;28;19932;-46
2022/06/26 06:01:46;;;;;;;;;;;;;;;;;;2081579;28;19921;-48
2022/06/26 06:02:47;;;;;;;;;;;;;;;;;;2081864;28;19921;-46
2022/06/26 06:03:48;;;;;;;;;;;;;;;;;;2082068;28;19925;-46
2022/06/26 06:04:49;;;;;;;;;;;;;;;;;;2081783;28;19956;-47
2022/06/26 06:05:52;;;;;;;;;;;;;;;;;;2082176;28;19995;-42
2022/06/26 06:06:54;;;;;;;;;;;;;;;;;;2082103;28;20037;-45
2022/06/26 06:07:55;;;;;;;;;;;;;;;;;;2082032;28;20008;-45
2022/06/26 06:08:56;;;;;;;;;;;;;;;;;;2081656;28;20018;-45
2022/06/26 06:09:57;;;;;;;;;;;;;;;;;;2082043;28;19921;-43
2022/06/26 06:10:58;;;;;;;;;;;;;;;;;;2081512;28;19921;-44
2022/06/26 06:11:59;;;;;;;;;;;;;;;;;;2082243;28;19921;-43
2022/06/26 06:13:01;;;;;;;;;;;;;;;;;;2081353;28;19921;-43
2022/06/26 06:14:01;;;;;;;;;;;;;;;;;;2081233;28;19995;-43
2022/06/26 06:15:02;;;;;;;;;;;;;;;;;;2081859;28;20371;-45
2022/06/26 06:16:04;;;;;;;;;;;;;;;;;;2081965;28;19921;-43
2022/06/26 06:18:21;;;;;;;;;;;;;;;;;;2081721;28;20008;-43
2022/06/26 06:19:22;;;;;;;;;;;;;;;;;;2082099;28;19921;-43
2022/06/26 06:20:24;;;;;;;;;;;;;;;;;;2081734;28;19944;-43
2022/06/26 06:21:24;;;;;;;;;;;;;;;;;;2081934;28;20021;-44
2022/06/26 06:22:25;;;;;;;;;;;;;;;;;;2081615;28;20381;-43
2022/06/26 06:23:26;;;;;;;;;;;;;;;;;;2081703;28;20414;-43
2022/06/26 06:24:27;;;;;;;;;;;;;;;;;;2081526;28;20497;-43
2022/06/26 06:25:28;;;;;;;;;;;;;;;;;;2081699;28;19971;-43
2022/06/26 06:26:29;;;;;;;;;;;;;;;;;;2081364;28;20275;-43
2022/06/26 06:27:30;;;;;;;;;;;;;;;;;;2081878;28;19920;-45
2022/06/26 06:28:31;;;;;;;;;;;;;;;;;;2081881;28;20008;-43
2022/06/26 06:29:32;;;;;;;;;;;;;;;;;;2081628;28;19920;-42
2022/06/26 06:30:33;;;;;;;;;;;;;;;;;;2081396;28;20011;-44
2022/06/26 06:31:33;;;;;;;;;;;;;;;;;;2081616;28;19971;-43
2022/06/26 06:32:34;;;;;;;;;;;;;;;;;;2082118;28;19905;-45
2022/06/26 06:33:35;;;;;;;;;;;;;;;;;;2081471;28;19983;-45
2022/06/26 06:34:36;;;;;;;;;;;;;;;;;;2081853;28;20008;-43
2022/06/26 06:35:37;;;;;;;;;;;;;;;;;;2081927;28;19921;-44
2022/06/26 06:36:38;;;;;;;;;;;;;;;;;;2081829;28;19921;-43
2022/06/26 06:37:39;;;;;;;;;;;;;;;;;;2081670;28;20047;-45
2022/06/26 06:38:40;;;;;;;;;;;;;;;;;;2081765;28;19920;-45
2022/06/26 06:39:41;;;;;;;;;;;;;;;;;;2081691;28;20462;-46
2022/06/26 06:40:42;;;;;;;;;;;;;;;;;;2082158;28;20150;-46
2022/06/26 06:41:42;;;;;;;;;;;;;;;;;;2081576;28;20261;-46
2022/06/26 06:42:44;;;;;;;;;;;;;;;;;;2081400;28;20359;-45
2022/06/26 06:43:46;;;;;;;;;;;;;;;;;;2081732;28;20011;-45
2022/06/26 06:44:47;;;;;;;;;;;;;;;;;;2085609;28;20259;-46
2022/06/26 06:45:48;;;;;;;;;;;;;;;;;;2089749;28;19978;-46
2022/06/26 06:46:49;;;;;;;;;;;;;;;;;;2089944;28;19920;-45
2022/06/26 06:47:49;;;;;;;;;;;;;;;;;;2089964;28;19920;-45
2022/06/26 06:48:50;;;;;;;;;;;;;;;;;;2089822;28;20277;-45
2022/06/26 06:49:51;;;;;;;;;;;;;;;;;;2089850;28;19928;-43
2022/06/26 06:50:52;;;;;;;;;;;;;;;;;;2089876;28;19963;-45
2022/06/26 06:51:53;;;;;;;;;;;;;;;;;;2090115;28;19959;-45
2022/06/26 06:52:54;;;;;;;;;;;;;;;;;;2090075;28;20431;-43
2022/06/26 06:53:55;;;;;;;;;;;;;;;;;;2089596;28;19921;-43
2022/06/26 06:54:56;;;;;;;;;;;;;;;;;;2089962;28;20004;-48
2022/06/26 06:55:56;;;;;;;;;;;;;;;;;;2090017;28;19927;-43
2022/06/26 06:56:57;;;;;;;;;;;;;;;;;;2089766;28;20301;-46
2022/06/26 06:57:59;;;;;;;;;;;;;;;;;;2090389;28;19920;-46
2022/06/26 06:59:00;;;;;;;;;;;;;;;;;;2089941;28;20011;-44
2022/06/26 07:00:01;;;;;;;;;;;;;;;;;;2089653;28;20011;-45
2022/06/26 07:01:02;;;;;;;;;;;;;;;;;;2089458;28;20011;-45
2022/06/26 07:02:03;;;;;;;;;;;;;;;;;;2086125;28;19964;-43